Cottonton, Alabama
Current Conditions -  °F | °C
As of 2:58 PM on Thursday 27 Nov 2014 (Local Time) from KLSF Reporting Station
Clear Clear  
Wind Chill: 53°   Ceiling: Unl
Heat Index: 53°   Visibility: 10mi
Dew Point: 30°   Wind: 17mph
Humidity: 42%   Direction: 310°NW
Pressure: 30.3"   Gusts: NA
Location:  32.15°N, 85.07°W
Report Text: KLSF 272058Z AUTO 31015KT 10SM CLR 11/M01 A3030 RMK AO2 SLP264 T01141013 53003 $
Loading
Personal Weather Stations






























Interactive Weather Map New forecast layout! Learn more

10-Day Weather Forecast

Advertisements
Track Severe Weather on mobile